Aérodrome :
LOGIN :

S'inscrire | Disclaimer

   EN    FR    IT 

 










Légende :    VFR   VFR Marginal   IFR   IFR Intensif   IFR Très Intensif
Visi : 
Plafond : 
>= 8 km
>= 3000ft
5 à 8 km
1000 à 3000 ft
1500m à 5 km
500 à 1000 ft
800 à 1500m
200 à 500 ft
< 800m
< 200 ft
Symboles :   Orages  Brouillard  Fortes neiges  Fortes précipitations  Vent > 20 kt
SIGMETs :   Divers  Orages  Givrage  Turbulence  Onde Orograph.  Cendres Volcan.







- Altitude de l'aérodrome : 257 ft
- Code IATA : MAN
- Voir les cartes d'approche


EGCC - Manchester

DERNIER METAR :
  • 191550Z AUTO 21006KT 130V230 9999 OVC032 09/02 Q1015 NOSIG

METARs EXPIRÉS :
  • 191520Z AUTO 21009KT 9999 OVC037 09/02 Q1015 NOSIG
  • 191450Z AUTO 20007KT 170V230 9999 BKN047 09/02 Q1015 NOSIG
  • 191420Z AUTO 21010KT 180V240 9999 FEW033 09/02 Q1015 NOSIG
  • 191350Z AUTO 22010KT 9999 SCT042 09/03 Q1016 NOSIG

TAF TAF EGCC
Valide du 19 à 12h jusqu'au 20 à 18h UTC


191059Z 1912/2018 24008KT 9999 SCT035
BECMG 1915/1918 18012KT
PROB40
TEMPO 1921/2009 7000 RA BKN014
TEMPO 2015/2018 BKN014
ATIS : +44 161 499 2324
Pas de NOTAMs connus pour ce terrain.



MET'MAP, la Météo Aéronautique d'un coup d'oeil ! - Copyright ORBIFLY Décembre 2007 - Disclaimer

ORBIFLY MET'MAP TEAM :

Programmation & Développement : Alexandra Zaïnal
Conception & Développement : Baudouin d'Aumeries
Co-Programmation & Développement : Marc-Olivier Méhu
Soutien technique & logistique : Manuel Goepfert

Contact : metmap@orbifly.com




SOURCES & CREDITS :

   NOAA